Time;durP1;ratioP1;P1;durP2;ratioP2;P2;SDS_P1;SDS_P2;PMS_P1;PMS_P2;Temp;Humidity;BMP_temperature;BMP_pressure;BME280_temperature;BME280_humidity;BME280_pressure;Samples;Min_cycle;Max_cycle;Signal;HPM_P1;HPM_P2
2022/07/07 00:01:21;;;;;;;;;;;17.70;99.90;;;;;;5075264;28;19931;-65
2022/07/07 00:03:47;;;;;;;;;;;17.70;99.90;;;;;;5093378;28;19908;-65
2022/07/07 00:06:12;;;;;;;;;;;17.70;99.90;;;;;;5093252;28;19908;-66
2022/07/07 00:08:38;;;;;;;;;;;17.70;99.90;;;;;;5093458;28;19908;-65
2022/07/07 00:11:03;;;;;;;;;;;17.70;99.90;;;;;;5093224;28;19914;-65
2022/07/07 00:13:29;;;;;;;;;;;17.70;99.90;;;;;;5092926;28;19920;-65
2022/07/07 00:15:54;;;;;;;;;;;17.70;99.90;;;;;;5093174;28;19922;-65
2022/07/07 00:18:20;;;;;;;;;;;17.70;99.90;;;;;;5093157;28;19915;-65
2022/07/07 00:20:45;;;;;;;;;;;17.80;99.90;;;;;;5095359;28;20021;-65
2022/07/07 00:23:11;;;;;;;;;;;17.80;99.90;;;;;;5096792;28;19912;-65
2022/07/07 00:25:36;;;;;;;;;;;17.80;99.90;;;;;;5096703;28;20002;-65
2022/07/07 00:28:02;;;;;;;;;;;17.80;99.90;;;;;;5096947;28;19916;-65
2022/07/07 00:30:27;;;;;;;;;;;17.80;99.90;;;;;;5096900;28;20346;-65
2022/07/07 00:32:53;;;;;;;;;;;17.70;99.90;;;;;;5096765;28;19912;-66
2022/07/07 00:35:18;;;;;;;;;;;17.80;99.90;;;;;;5096616;28;19908;-65
2022/07/07 00:37:44;;;;;;;;;;;17.80;99.90;;;;;;5096492;28;19907;-66
2022/07/07 00:40:09;;;;;;;;;;;17.80;99.90;;;;;;5096461;28;19908;-66
2022/07/07 00:42:35;;;;;;;;;;;17.70;99.90;;;;;;5096694;28;19908;-65
2022/07/07 00:45:00;;;;;;;;;;;17.70;99.90;;;;;;5096663;28;19909;-65
2022/07/07 00:47:26;;;;;;;;;;;17.70;99.90;;;;;;5096336;28;19908;-65
2022/07/07 00:49:52;;;;;;;;;;;17.70;99.90;;;;;;5096563;28;20475;-65
2022/07/07 00:52:18;;;;;;;;;;;17.70;99.90;;;;;;5096172;28;19915;-65
2022/07/07 00:55:00;;;;;;;;;;;17.50;99.90;;;;;;5096133;28;19915;-65
2022/07/07 00:57:26;;;;;;;;;;;17.30;99.90;;;;;;5096340;28;19931;-64
2022/07/07 00:59:54;;;;;;;;;;;16.70;99.90;;;;;;5096080;28;19944;-64
2022/07/07 01:02:20;;;;;;;;;;;16.60;99.90;;;;;;5096030;28;19912;-64
2022/07/07 01:04:45;;;;;;;;;;;16.40;99.90;;;;;;5078179;28;19957;-65
2022/07/07 01:07:11;;;;;;;;;;;16.30;99.90;;;;;;5095954;28;19943;-64
2022/07/07 01:09:37;;;;;;;;;;;16.10;99.90;;;;;;5095880;28;19908;-65
2022/07/07 01:12:02;;;;;;;;;;;16.00;99.90;;;;;;5095838;28;19919;-65
2022/07/07 01:14:29;;;;;;;;;;;16.00;99.90;;;;;;5096071;28;19908;-64
2022/07/07 01:16:55;;;;;;;;;;;15.90;99.90;;;;;;5095983;28;19916;-65
2022/07/07 01:19:21;;;;;;;;;;;15.80;99.90;;;;;;5095724;28;20319;-65
2022/07/07 01:21:57;;;;;;;;;;;15.70;99.90;;;;;;5095602;28;19998;-64
2022/07/07 01:24:23;;;;;;;;;;;15.70;99.90;;;;;;5095602;28;19912;-65
2022/07/07 01:26:49;;;;;;;;;;;15.80;99.90;;;;;;5095547;28;19919;-64
2022/07/07 01:29:14;;;;;;;;;;;15.80;99.90;;;;;;5095443;28;19908;-65
2022/07/07 01:31:40;;;;;;;;;;;15.80;99.90;;;;;;5095464;28;20013;-64
2022/07/07 01:34:05;;;;;;;;;;;15.90;99.90;;;;;;5077267;28;19965;-64
2022/07/07 01:36:31;;;;;;;;;;;15.80;99.90;;;;;;5095384;28;19908;-65
2022/07/07 01:38:56;;;;;;;;;;;15.90;99.90;;;;;;5095352;28;19915;-65
2022/07/07 01:41:22;;;;;;;;;;;15.90;99.90;;;;;;5095538;28;20022;-65
2022/07/07 01:43:47;;;;;;;;;;;15.90;99.90;;;;;;5095221;28;19943;-64
2022/07/07 01:46:13;;;;;;;;;;;15.90;99.90;;;;;;5095462;28;19908;-65
2022/07/07 01:48:39;;;;;;;;;;;15.90;99.90;;;;;;5095165;28;19915;-64
2022/07/07 01:51:04;;;;;;;;;;;15.90;99.90;;;;;;5095091;28;19958;-65
2022/07/07 01:53:30;;;;;;;;;;;15.90;99.90;;;;;;5094960;28;19943;-65
2022/07/07 01:56:01;;;;;;;;;;;15.90;99.90;;;;;;5095034;28;19908;-65
2022/07/07 01:58:26;;;;;;;;;;;15.90;99.90;;;;;;5095208;28;19915;-65
2022/07/07 02:00:52;;;;;;;;;;;15.90;99.90;;;;;;5095023;28;20377;-65
2022/07/07 02:03:17;;;;;;;;;;;15.90;99.90;;;;;;5094842;28;20014;-65
2022/07/07 02:05:43;;;;;;;;;;;15.90;99.90;;;;;;5095081;28;19915;-64
2022/07/07 02:08:08;;;;;;;;;;;15.90;99.90;;;;;;5095028;28;19911;-65
2022/07/07 02:13:19;;;;;;;;;;;15.90;99.90;;;;;;5094244;28;20447;-65
2022/07/07 02:15:44;;;;;;;;;;;16.00;99.90;;;;;;5094662;28;19994;-65
2022/07/07 02:18:10;;;;;;;;;;;16.00;99.90;;;;;;5094596;28;20282;-64
2022/07/07 02:20:35;;;;;;;;;;;16.00;99.90;;;;;;5094536;28;19994;-65
2022/07/07 02:23:01;;;;;;;;;;;16.10;99.90;;;;;;5094794;28;19908;-64
2022/07/07 02:25:26;;;;;;;;;;;16.10;99.90;;;;;;5076326;28;19908;-65
2022/07/07 02:27:53;;;;;;;;;;;16.10;99.90;;;;;;5094413;28;19919;-65
2022/07/07 02:30:18;;;;;;;;;;;16.10;99.90;;;;;;5094612;28;19963;-64
2022/07/07 02:32:44;;;;;;;;;;;16.20;99.90;;;;;;5094224;28;19919;-64
2022/07/07 02:35:09;;;;;;;;;;;16.20;99.90;;;;;;5094481;28;19977;-65
2022/07/07 02:37:35;;;;;;;;;;;16.20;99.90;;;;;;5094459;28;19908;-65
2022/07/07 02:40:01;;;;;;;;;;;16.20;99.90;;;;;;5094473;28;19908;-65
2022/07/07 02:42:26;;;;;;;;;;;16.10;99.90;;;;;;5094038;28;19931;-65
2022/07/07 02:44:52;;;;;;;;;;;16.10;99.90;;;;;;5094148;28;20382;-65
2022/07/07 02:47:17;;;;;;;;;;;16.10;99.90;;;;;;5094082;28;19908;-65
2022/07/07 02:49:42;;;;;;;;;;;16.10;99.90;;;;;;5094020;28;19934;-64
2022/07/07 02:52:08;;;;;;;;;;;16.10;99.90;;;;;;5094199;28;19915;-65
2022/07/07 02:54:33;;;;;;;;;;;16.20;99.90;;;;;;5093994;28;19908;-65
2022/07/07 02:56:59;;;;;;;;;;;16.30;99.90;;;;;;5094173;28;19914;-64
2022/07/07 02:59:24;;;;;;;;;;;16.30;99.90;;;;;;5094154;28;19908;-65
2022/07/07 03:01:50;;;;;;;;;;;16.40;99.90;;;;;;5094227;28;20417;-65
2022/07/07 03:04:16;;;;;;;;;;;16.40;99.90;;;;;;5094111;28;19908;-65
2022/07/07 03:06:41;;;;;;;;;;;16.40;99.90;;;;;;5093776;28;19908;-65
2022/07/07 03:09:06;;;;;;;;;;;16.50;99.90;;;;;;5093992;28;19943;-65
2022/07/07 03:11:32;;;;;;;;;;;16.50;99.90;;;;;;5093814;28;19912;-64
2022/07/07 03:13:57;;;;;;;;;;;16.60;99.90;;;;;;5093483;28;20354;-65
2022/07/07 03:16:23;;;;;;;;;;;16.60;99.90;;;;;;5093713;28;19915;-65
2022/07/07 03:18:48;;;;;;;;;;;16.60;99.90;;;;;;5075656;28;19912;-65
2022/07/07 03:21:14;;;;;;;;;;;16.60;99.90;;;;;;5093909;28;20346;-65
2022/07/07 03:23:39;;;;;;;;;;;16.60;99.90;;;;;;5093651;28;20332;-65
2022/07/07 03:26:05;;;;;;;;;;;16.60;99.90;;;;;;5093859;28;19915;-65
2022/07/07 03:28:31;;;;;;;;;;;16.70;99.90;;;;;;5093635;28;19908;-65
2022/07/07 03:30:57;;;;;;;;;;;16.70;99.90;;;;;;5093839;28;19915;-65
2022/07/07 03:33:24;;;;;;;;;;;16.70;99.90;;;;;;5093508;28;19912;-65
2022/07/07 03:35:49;;;;;;;;;;;16.70;99.90;;;;;;5094095;28;20320;-64
2022/07/07 03:38:15;;;;;;;;;;;16.70;99.90;;;;;;5093777;28;19908;-64
2022/07/07 03:40:40;;;;;;;;;;;16.70;99.90;;;;;;5093468;28;20369;-65
2022/07/07 03:43:06;;;;;;;;;;;16.80;99.90;;;;;;5093516;28;19915;-64
2022/07/07 03:45:31;;;;;;;;;;;16.80;99.90;;;;;;5093476;28;19908;-65
2022/07/07 03:47:56;;;;;;;;;;;16.80;99.90;;;;;;5093662;28;20316;-65
2022/07/07 03:50:22;;;;;;;;;;;16.80;99.90;;;;;;5093695;28;19912;-65
2022/07/07 03:52:48;;;;;;;;;;;16.90;99.90;;;;;;5093301;28;20377;-65
2022/07/07 03:55:13;;;;;;;;;;;16.90;99.90;;;;;;5094847;28;19908;-65
2022/07/07 03:57:39;;;;;;;;;;;16.90;99.90;;;;;;5097547;28;19916;-65
2022/07/07 04:00:05;;;;;;;;;;;16.90;99.90;;;;;;5097491;28;19915;-65
2022/07/07 04:02:31;;;;;;;;;;;16.90;99.90;;;;;;5097466;28;19914;-65
2022/07/07 04:04:56;;;;;;;;;;;16.90;99.90;;;;;;5097408;28;20010;-64
2022/07/07 04:07:22;;;;;;;;;;;16.90;99.90;;;;;;5097106;28;19912;-65
2022/07/07 04:09:48;;;;;;;;;;;16.90;99.90;;;;;;5097356;28;19915;-64
2022/07/07 04:12:13;;;;;;;;;;;17.00;99.90;;;;;;5096943;28;19916;-64
2022/07/07 04:14:39;;;;;;;;;;;17.00;99.90;;;;;;5096901;28;19908;-64
2022/07/07 04:17:04;;;;;;;;;;;17.00;99.90;;;;;;5097195;28;19912;-65
2022/07/07 04:19:30;;;;;;;;;;;17.10;99.90;;;;;;5096768;28;19958;-65
2022/07/07 04:21:55;;;;;;;;;;;17.10;99.90;;;;;;5097077;28;19994;-65
2022/07/07 04:24:21;;;;;;;;;;;17.10;99.90;;;;;;5078620;28;19908;-64
2022/07/07 04:26:46;;;;;;;;;;;17.10;99.90;;;;;;5078923;28;19908;-64
2022/07/07 04:29:12;;;;;;;;;;;17.10;99.90;;;;;;5096708;28;19912;-64
2022/07/07 04:31:43;;;;;;;;;;;17.10;99.90;;;;;;5096656;28;20367;-64
2022/07/07 04:34:09;;;;;;;;;;;17.00;99.90;;;;;;5096445;28;20374;-64
2022/07/07 04:36:34;;;;;;;;;;;17.00;99.90;;;;;;5096561;28;19908;-64
2022/07/07 04:38:59;;;;;;;;;;;16.90;99.90;;;;;;5096779;28;19908;-64
2022/07/07 04:41:25;;;;;;;;;;;16.90;99.90;;;;;;5096451;28;20267;-64
2022/07/07 04:43:51;;;;;;;;;;;16.90;99.90;;;;;;5078368;28;19908;-64
2022/07/07 04:46:16;;;;;;;;;;;16.90;99.90;;;;;;5096619;28;19908;-64
2022/07/07 04:48:41;;;;;;;;;;;16.90;99.90;;;;;;5096236;28;20366;-64
2022/07/07 04:51:07;;;;;;;;;;;16.90;99.90;;;;;;5096189;28;19915;-64
2022/07/07 04:53:32;;;;;;;;;;;16.80;99.90;;;;;;5096368;28;19968;-64
2022/07/07 04:55:58;;;;;;;;;;;16.80;99.90;;;;;;5096415;28;19986;-65
2022/07/07 04:58:23;;;;;;;;;;;16.80;99.90;;;;;;5096214;28;19908;-64
2022/07/07 05:00:49;;;;;;;;;;;16.70;99.90;;;;;;5078011;28;20370;-65
2022/07/07 05:03:14;;;;;;;;;;;16.70;99.90;;;;;;5096320;28;19964;-65
2022/07/07 05:05:40;;;;;;;;;;;16.60;99.90;;;;;;5095897;28;19908;-65
2022/07/07 05:08:05;;;;;;;;;;;16.50;99.90;;;;;;5095972;28;20267;-65
2022/07/07 05:10:31;;;;;;;;;;;16.50;99.90;;;;;;5096156;28;19916;-65
2022/07/07 05:12:56;;;;;;;;;;;16.40;99.90;;;;;;5095559;28;19920;-65
2022/07/07 05:15:22;;;;;;;;;;;16.40;99.90;;;;;;5096072;28;19919;-65
2022/07/07 05:17:47;;;;;;;;;;;16.30;99.90;;;;;;5095995;28;20285;-65
2022/07/07 05:20:13;;;;;;;;;;;16.20;99.90;;;;;;5077902;28;20397;-65
2022/07/07 05:22:38;;;;;;;;;;;16.20;99.90;;;;;;5095690;28;19951;-65
2022/07/07 05:25:04;;;;;;;;;;;16.20;99.90;;;;;;5095848;28;19908;-66
2022/07/07 05:27:29;;;;;;;;;;;16.10;99.90;;;;;;5095813;28;19947;-65
2022/07/07 05:29:55;;;;;;;;;;;16.10;99.90;;;;;;5095657;28;19915;-65
2022/07/07 05:32:20;;;;;;;;;;;16.10;99.90;;;;;;5095384;28;19957;-65
2022/07/07 05:34:46;;;;;;;;;;;16.10;99.90;;;;;;5095672;28;19957;-65
2022/07/07 05:37:11;;;;;;;;;;;16.10;99.90;;;;;;5077617;28;19947;-65
2022/07/07 05:39:37;;;;;;;;;;;16.20;99.90;;;;;;5095573;28;20324;-65
2022/07/07 05:42:02;;;;;;;;;;;16.20;99.90;;;;;;5095494;28;19912;-65
2022/07/07 05:44:28;;;;;;;;;;;16.30;99.90;;;;;;5077472;28;20294;-65
2022/07/07 05:46:53;;;;;;;;;;;16.30;99.90;;;;;;5095408;28;20003;-65
2022/07/07 05:49:20;;;;;;;;;;;16.30;99.90;;;;;;5095109;28;19908;-65
2022/07/07 05:51:45;;;;;;;;;;;16.20;99.90;;;;;;5095243;28;20046;-65
2022/07/07 05:54:10;;;;;;;;;;;16.10;99.90;;;;;;5076900;28;20417;-65
2022/07/07 05:56:36;;;;;;;;;;;16.10;99.90;;;;;;5076896;28;19908;-65
2022/07/07 05:59:01;;;;;;;;;;;16.00;99.90;;;;;;5095172;28;19908;-65
2022/07/07 06:01:27;;;;;;;;;;;16.00;99.90;;;;;;5094933;28;19908;-65
2022/07/07 06:03:52;;;;;;;;;;;16.10;99.90;;;;;;5095002;28;19912;-65
2022/07/07 06:06:18;;;;;;;;;;;16.10;99.90;;;;;;5094748;28;19908;-65
2022/07/07 06:08:43;;;;;;;;;;;16.10;99.90;;;;;;5099164;28;20347;-64
2022/07/07 06:11:09;;;;;;;;;;;16.00;99.90;;;;;;5095383;28;20019;-64
2022/07/07 06:13:34;;;;;;;;;;;16.10;99.90;;;;;;5104342;28;19969;-65
2022/07/07 06:16:00;;;;;;;;;;;16.10;99.90;;;;;;5102387;28;20305;-65
2022/07/07 06:18:25;;;;;;;;;;;16.20;99.90;;;;;;5094246;28;19912;-65
2022/07/07 06:20:51;;;;;;;;;;;16.40;99.90;;;;;;5098443;28;19908;-65
2022/07/07 06:23:16;;;;;;;;;;;16.50;99.90;;;;;;5095984;28;20434;-65
2022/07/07 06:25:43;;;;;;;;;;;16.50;99.90;;;;;;5103733;28;19915;-65
2022/07/07 06:28:08;;;;;;;;;;;16.50;99.90;;;;;;5100989;28;19908;-66
2022/07/07 06:30:34;;;;;;;;;;;16.50;99.90;;;;;;5090758;28;20298;-66
2022/07/07 06:33:00;;;;;;;;;;;16.50;99.90;;;;;;5090329;28;19912;-65
2022/07/07 06:35:26;;;;;;;;;;;17.10;99.90;;;;;;5093201;28;19943;-66
2022/07/07 06:37:52;;;;;;;;;;;17.10;99.90;;;;;;5074795;28;20408;-65
2022/07/07 06:40:18;;;;;;;;;;;17.20;99.90;;;;;;5092686;28;20053;-66
2022/07/07 06:42:44;;;;;;;;;;;17.00;99.90;;;;;;5092730;28;20387;-65
2022/07/07 06:45:09;;;;;;;;;;;16.90;99.90;;;;;;5092891;28;19908;-66
2022/07/07 06:47:35;;;;;;;;;;;16.70;99.90;;;;;;5092598;28;19908;-65
2022/07/07 06:50:00;;;;;;;;;;;16.70;99.90;;;;;;5092607;28;19992;-65
2022/07/07 06:52:26;;;;;;;;;;;16.80;99.90;;;;;;5092768;28;19912;-65
2022/07/07 06:54:52;;;;;;;;;;;16.90;99.90;;;;;;5092768;28;20249;-65
2022/07/07 06:57:17;;;;;;;;;;;17.00;99.90;;;;;;5092464;28;19990;-65
2022/07/07 06:59:43;;;;;;;;;;;17.10;99.90;;;;;;5092766;28;20285;-64
2022/07/07 07:02:08;;;;;;;;;;;17.20;99.90;;;;;;5092321;28;19959;-65
2022/07/07 07:04:34;;;;;;;;;;;17.10;99.90;;;;;;5089735;28;19943;-65
2022/07/07 07:06:59;;;;;;;;;;;17.10;99.90;;;;;;5056270;28;19908;-65
2022/07/07 07:09:25;;;;;;;;;;;17.00;99.90;;;;;;5092923;28;19912;-65
2022/07/07 07:11:50;;;;;;;;;;;17.00;99.90;;;;;;5092110;28;19912;-65
2022/07/07 07:14:16;;;;;;;;;;;17.00;99.90;;;;;;5074204;28;19916;-65
2022/07/07 07:16:41;;;;;;;;;;;17.00;99.90;;;;;;5089829;28;19916;-65
2022/07/07 07:19:07;;;;;;;;;;;16.80;99.90;;;;;;5089165;28;19912;-65
2022/07/07 07:21:32;;;;;;;;;;;16.80;99.90;;;;;;5089809;28;19916;-65
2022/07/07 07:23:58;;;;;;;;;;;16.60;99.90;;;;;;5089484;28;20281;-65
2022/07/07 07:26:26;;;;;;;;;;;16.60;99.90;;;;;;5092244;28;19908;-64
2022/07/07 07:28:52;;;;;;;;;;;16.50;99.90;;;;;;5092936;28;20032;-65
2022/07/07 07:31:18;;;;;;;;;;;16.60;99.90;;;;;;5093771;28;19912;-65
2022/07/07 07:33:43;;;;;;;;;;;16.70;99.90;;;;;;5094129;28;19933;-65
2022/07/07 07:36:09;;;;;;;;;;;16.90;99.90;;;;;;5091837;28;19909;-65
2022/07/07 07:38:35;;;;;;;;;;;17.30;99.90;;;;;;5096392;28;19915;-65
2022/07/07 07:41:02;;;;;;;;;;;17.60;99.90;;;;;;5096092;28;19915;-65
2022/07/07 07:43:28;;;;;;;;;;;18.00;99.90;;;;;;5096584;28;19908;-65
2022/07/07 07:45:53;;;;;;;;;;;18.20;99.90;;;;;;5091382;28;19962;-65
2022/07/07 07:48:19;;;;;;;;;;;18.20;99.90;;;;;;5094482;28;19912;-65
2022/07/07 07:50:44;;;;;;;;;;;18.40;99.90;;;;;;5096215;28;19919;-66
2022/07/07 07:53:10;;;;;;;;;;;18.60;99.90;;;;;;5077672;28;19912;-65
2022/07/07 07:55:35;;;;;;;;;;;19.20;99.90;;;;;;5095783;28;19908;-66
2022/07/07 07:58:01;;;;;;;;;;;19.10;99.90;;;;;;5096155;28;20003;-66
2022/07/07 08:00:26;;;;;;;;;;;19.00;99.90;;;;;;5096005;28;19958;-65
2022/07/07 08:02:52;;;;;;;;;;;19.00;99.90;;;;;;5095733;28;19916;-65
2022/07/07 08:05:18;;;;;;;;;;;19.10;99.90;;;;;;5095616;28;20562;-65
2022/07/07 08:07:44;;;;;;;;;;;18.70;99.90;;;;;;5096523;28;20325;-66
2022/07/07 08:10:10;;;;;;;;;;;18.80;99.90;;;;;;5097008;28;19908;-66
2022/07/07 08:12:36;;;;;;;;;;;18.80;99.90;;;;;;5096888;28;19924;-65
2022/07/07 08:15:02;;;;;;;;;;;19.00;99.90;;;;;;5097204;28;19912;-66
2022/07/07 08:17:27;;;;;;;;;;;18.80;99.90;;;;;;5097117;28;19908;-66
2022/07/07 08:19:53;;;;;;;;;;;18.90;99.90;;;;;;5096847;28;19911;-66
2022/07/07 08:22:18;;;;;;;;;;;19.30;99.90;;;;;;5097060;28;19958;-66
2022/07/07 08:24:44;;;;;;;;;;;19.70;99.90;;;;;;5078921;28;20338;-65
2022/07/07 08:27:10;;;;;;;;;;;19.50;99.90;;;;;;5061881;28;19915;-65
2022/07/07 08:29:38;;;;;;;;;;;19.20;99.90;;;;;;5096935;28;19908;-66
2022/07/07 08:32:05;;;;;;;;;;;19.10;99.90;;;;;;5096846;28;20370;-66
2022/07/07 08:34:31;;;;;;;;;;;18.90;99.90;;;;;;5096730;28;20286;-67
2022/07/07 08:36:56;;;;;;;;;;;19.10;99.90;;;;;;5095635;28;19915;-66
2022/07/07 08:39:22;;;;;;;;;;;19.20;99.90;;;;;;5090480;28;20373;-66
2022/07/07 08:41:47;;;;;;;;;;;19.30;99.90;;;;;;5088634;28;19916;-66
2022/07/07 08:44:14;;;;;;;;;;;19.50;99.90;;;;;;5092202;28;19923;-66
2022/07/07 08:46:40;;;;;;;;;;;19.50;99.90;;;;;;5089931;28;19912;-66
2022/07/07 08:49:06;;;;;;;;;;;19.80;99.90;;;;;;5092962;28;20414;-66
2022/07/07 08:51:32;;;;;;;;;;;20.40;99.90;;;;;;5077571;28;19951;-65
2022/07/07 08:54:00;;;;;;;;;;;20.40;99.90;;;;;;5095912;28;20024;-67
2022/07/07 08:56:26;;;;;;;;;;;20.30;99.90;;;;;;5095659;28;19940;-67
2022/07/07 08:58:51;;;;;;;;;;;20.30;99.90;;;;;;5096114;28;19917;-66
2022/07/07 09:01:17;;;;;;;;;;;20.20;99.90;;;;;;5096021;28;19916;-66
2022/07/07 09:03:43;;;;;;;;;;;20.20;99.90;;;;;;5095943;28;20297;-66
2022/07/07 09:06:08;;;;;;;;;;;20.60;99.90;;;;;;5075766;28;19912;-67
2022/07/07 09:08:33;;;;;;;;;;;20.60;99.90;;;;;;5093095;28;19955;-67
2022/07/07 09:10:59;;;;;;;;;;;20.60;99.90;;;;;;5096167;28;19908;-67
2022/07/07 09:13:26;;;;;;;;;;;20.40;99.90;;;;;;5095611;28;19920;-67
2022/07/07 09:15:53;;;;;;;;;;;20.30;99.90;;;;;;5095753;28;19980;-67
2022/07/07 09:18:38;;;;;;;;;;;20.50;99.90;;;;;;5095984;28;19908;-67
2022/07/07 09:21:06;;;;;;;;;;;20.40;99.90;;;;;;5093408;28;19912;-66
2022/07/07 09:23:31;;;;;;;;;;;19.80;99.90;;;;;;5094900;28;19912;-66
2022/07/07 09:25:58;;;;;;;;;;;19.60;99.90;;;;;;5099712;28;19967;-66
2022/07/07 09:28:24;;;;;;;;;;;20.00;99.90;;;;;;5096498;28;20370;-66
2022/07/07 09:30:50;;;;;;;;;;;20.80;99.90;;;;;;5095964;28;19912;-67
2022/07/07 09:33:21;;;;;;;;;;;21.90;99.90;;;;;;5093643;28;19968;-66
2022/07/07 09:38:33;;;;;;;;;;;23.50;99.90;;;;;;5090255;28;19919;-67
2022/07/07 09:41:15;;;;;;;;;;;23.60;99.90;;;;;;5097103;28;20285;-66
2022/07/07 09:43:45;;;;;;;;;;;23.60;99.90;;;;;;5080983;28;19972;-66
2022/07/07 09:46:13;;;;;;;;;;;23.70;99.90;;;;;;5096928;28;20358;-66
2022/07/07 09:48:40;;;;;;;;;;;24.10;99.90;;;;;;5096530;28;20331;-66
2022/07/07 09:51:10;;;;;;;;;;;23.70;99.90;;;;;;5100667;28;19961;-66
2022/07/07 09:53:51;;;;;;;;;;;22.90;99.90;;;;;;5112318;28;20289;-66
2022/07/07 09:56:16;;;;;;;;;;;22.50;99.90;;;;;;5107205;28;19908;-66
2022/07/07 09:58:42;;;;;;;;;;;22.10;99.90;;;;;;5101387;28;19964;-67
2022/07/07 10:01:07;;;;;;;;;;;21.70;99.90;;;;;;5095383;28;19908;-66
2022/07/07 10:03:33;;;;;;;;;;;21.40;99.90;;;;;;5100234;28;19915;-66
2022/07/07 10:06:00;;;;;;;;;;;20.80;99.90;;;;;;5110012;28;20426;-66
2022/07/07 10:08:28;;;;;;;;;;;20.40;99.90;;;;;;5103043;28;19953;-66
2022/07/07 10:10:54;;;;;;;;;;;20.00;99.90;;;;;;5095797;28;19915;-66
2022/07/07 10:13:20;;;;;;;;;;;19.80;99.90;;;;;;5102978;28;19920;-66
2022/07/07 10:15:45;;;;;;;;;;;20.00;99.90;;;;;;5103212;28;19908;-66
2022/07/07 10:18:11;;;;;;;;;;;20.20;99.90;;;;;;5106248;28;19920;-66
2022/07/07 10:20:37;;;;;;;;;;;21.30;99.90;;;;;;5102277;28;19947;-66
2022/07/07 10:23:02;;;;;;;;;;;21.20;99.90;;;;;;5106214;28;19916;-66
2022/07/07 10:25:28;;;;;;;;;;;21.10;99.90;;;;;;5106127;28;20255;-66
2022/07/07 10:27:53;;;;;;;;;;;20.80;99.90;;;;;;5105211;28;19916;-65
2022/07/07 10:30:34;;;;;;;;;;;20.40;99.90;;;;;;5105487;28;19912;-66
2022/07/07 10:33:02;;;;;;;;;;;20.40;99.90;;;;;;5093169;28;19912;-66
2022/07/07 10:35:39;;;;;;;;;;;20.60;99.90;;;;;;5092923;28;19908;-66
2022/07/07 10:38:09;;;;;;;;;;;20.40;99.90;;;;;;5090524;28;19937;-65
2022/07/07 10:40:34;;;;;;;;;;;20.70;99.90;;;;;;5094546;28;20432;-65
2022/07/07 10:43:20;;;;;;;;;;;21.00;99.90;;;;;;5085523;28;19923;-64
2022/07/07 10:45:46;;;;;;;;;;;21.30;99.90;;;;;;5094417;28;19918;-65
2022/07/07 10:48:31;;;;;;;;;;;22.70;99.90;;;;;;5110096;28;20019;-64
2022/07/07 10:51:17;;;;;;;;;;;23.00;99.90;;;;;;5103977;28;19915;-64
2022/07/07 10:54:03;;;;;;;;;;;23.80;99.90;;;;;;5096527;28;19939;-64
2022/07/07 10:56:48;;;;;;;;;;;23.90;99.90;;;;;;5092791;28;19912;-65
2022/07/07 10:59:14;;;;;;;;;;;23.90;99.90;;;;;;5097044;28;19944;-65
2022/07/07 11:01:59;;;;;;;;;;;23.30;99.90;;;;;;5097453;28;20345;-64
2022/07/07 11:04:46;;;;;;;;;;;23.00;99.90;;;;;;5095329;28;19913;-64
2022/07/07 11:07:14;;;;;;;;;;;22.20;99.90;;;;;;5094706;28;19908;-64
2022/07/07 11:09:57;;;;;;;;;;;21.60;99.90;;;;;;5107061;28;20301;-65
2022/07/07 11:12:43;;;;;;;;;;;21.30;99.90;;;;;;5095556;28;19912;-65
2022/07/07 11:15:32;;;;;;;;;;;21.00;99.90;;;;;;5100836;28;22213;-65
2022/07/07 11:18:00;;;;;;;;;;;20.90;99.90;;;;;;5098891;28;20282;-66
2022/07/07 11:20:27;;;;;;;;;;;20.60;99.90;;;;;;5110432;28;20327;-65
2022/07/07 11:22:53;;;;;;;;;;;20.30;99.90;;;;;;5093389;28;19954;-65
2022/07/07 11:25:20;;;;;;;;;;;20.10;99.90;;;;;;5093918;28;19958;-65
2022/07/07 11:27:46;;;;;;;;;;;20.10;99.90;;;;;;5095513;28;19955;-65
2022/07/07 11:30:12;;;;;;;;;;;20.10;99.90;;;;;;5098082;28;19912;-64
2022/07/07 11:32:38;;;;;;;;;;;20.50;99.90;;;;;;5095327;28;19908;-65
2022/07/07 11:35:05;;;;;;;;;;;21.30;99.90;;;;;;5084948;28;20366;-65
2022/07/07 11:37:31;;;;;;;;;;;21.80;99.90;;;;;;5100967;28;19908;-65
2022/07/07 11:39:57;;;;;;;;;;;22.30;99.90;;;;;;5109916;28;19931;-65
2022/07/07 11:42:23;;;;;;;;;;;21.90;99.90;;;;;;5096944;28;20362;-65
2022/07/07 11:44:48;;;;;;;;;;;22.00;99.90;;;;;;5105182;28;19958;-65
2022/07/07 11:47:14;;;;;;;;;;;22.00;99.90;;;;;;5101752;28;19912;-65
2022/07/07 11:49:40;;;;;;;;;;;22.00;99.90;;;;;;5076697;28;19912;-65
2022/07/07 11:52:10;;;;;;;;;;;21.90;99.90;;;;;;5091473;28;19919;-65
2022/07/07 11:54:42;;;;;;;;;;;21.80;99.90;;;;;;5097881;28;19916;-65
2022/07/07 11:57:07;;;;;;;;;;;22.10;99.90;;;;;;5085761;28;19912;-65
2022/07/07 11:59:33;;;;;;;;;;;21.80;99.90;;;;;;5106375;28;20049;-65
2022/07/07 12:01:58;;;;;;;;;;;21.40;99.90;;;;;;5076329;28;19908;-65
2022/07/07 12:04:24;;;;;;;;;;;20.50;99.90;;;;;;5095195;28;19912;-65
2022/07/07 12:06:50;;;;;;;;;;;19.80;99.90;;;;;;5105635;28;19908;-65
2022/07/07 12:09:17;;;;;;;;;;;19.20;99.90;;;;;;5093391;28;19912;-65
2022/07/07 12:11:43;;;;;;;;;;;18.80;99.90;;;;;;5091349;28;19915;-65
2022/07/07 12:14:09;;;;;;;;;;;18.60;99.90;;;;;;5109432;28;20401;-64
2022/07/07 12:16:50;;;;;;;;;;;18.30;99.90;;;;;;5115221;28;19912;-64
2022/07/07 12:19:16;;;;;;;;;;;18.20;99.90;;;;;;5092082;28;19912;-64
2022/07/07 12:21:44;;;;;;;;;;;18.20;99.90;;;;;;5097140;28;19912;-65
2022/07/07 12:24:11;;;;;;;;;;;18.50;99.90;;;;;;5078589;28;19908;-65
2022/07/07 12:26:59;;;;;;;;;;;18.80;99.90;;;;;;5096985;28;19908;-66
2022/07/07 12:29:25;;;;;;;;;;;19.00;99.90;;;;;;5096637;28;20412;-66
2022/07/07 12:31:51;;;;;;;;;;;19.70;99.90;;;;;;5096906;28;20370;-66
2022/07/07 12:34:19;;;;;;;;;;;20.00;99.90;;;;;;5096504;28;19961;-65
2022/07/07 12:36:46;;;;;;;;;;;20.50;99.90;;;;;;5087812;28;20381;-66
2022/07/07 12:39:26;;;;;;;;;;;20.30;99.90;;;;;;5076448;28;20327;-65
2022/07/07 12:41:55;;;;;;;;;;;20.20;99.90;;;;;;5076432;28;20363;-66
2022/07/07 12:44:23;;;;;;;;;;;20.60;99.90;;;;;;5076559;28;19909;-66
2022/07/07 12:46:54;;;;;;;;;;;20.60;99.90;;;;;;5076419;28;19970;-66
2022/07/07 12:49:23;;;;;;;;;;;20.40;99.90;;;;;;5076322;28;19965;-66
2022/07/07 12:51:55;;;;;;;;;;;20.30;99.90;;;;;;5075997;28;19912;-65
2022/07/07 12:54:24;;;;;;;;;;;19.90;99.90;;;;;;5076041;28;19977;-66
2022/07/07 12:57:07;;;;;;;;;;;19.70;99.90;;;;;;5079879;28;19952;-66
2022/07/07 12:59:36;;;;;;;;;;;19.60;99.90;;;;;;5092671;28;20388;-66
2022/07/07 13:02:04;;;;;;;;;;;19.40;99.90;;;;;;5096349;28;19958;-66
2022/07/07 13:04:30;;;;;;;;;;;19.30;99.90;;;;;;5096280;28;19908;-65
2022/07/07 13:06:58;;;;;;;;;;;19.30;99.90;;;;;;5076892;28;19908;-65
2022/07/07 13:09:26;;;;;;;;;;;19.50;99.90;;;;;;5096203;28;20362;-66
2022/07/07 13:11:58;;;;;;;;;;;19.80;99.90;;;;;;5078073;28;19915;-65
2022/07/07 13:14:24;;;;;;;;;;;20.00;99.90;;;;;;5095450;28;19931;-66
2022/07/07 13:16:50;;;;;;;;;;;20.30;99.90;;;;;;5096085;28;19915;-66
2022/07/07 13:19:17;;;;;;;;;;;20.30;99.90;;;;;;5095664;28;19908;-66
2022/07/07 13:21:43;;;;;;;;;;;20.30;99.90;;;;;;5095058;28;19935;-66
2022/07/07 13:24:10;;;;;;;;;;;20.50;99.90;;;;;;5095872;28;20362;-66
2022/07/07 13:26:36;;;;;;;;;;;20.60;99.90;;;;;;5088651;28;19912;-66
2022/07/07 13:29:02;;;;;;;;;;;20.30;99.90;;;;;;5095419;28;19915;-66
2022/07/07 13:31:27;;;;;;;;;;;20.30;99.90;;;;;;5095462;28;19908;-66
2022/07/07 13:33:53;;;;;;;;;;;19.80;99.90;;;;;;5095668;28;19916;-65
2022/07/07 13:36:18;;;;;;;;;;;19.00;99.90;;;;;;5089814;28;20011;-66
2022/07/07 13:38:44;;;;;;;;;;;18.80;99.90;;;;;;5076775;28;20000;-66
2022/07/07 13:41:09;;;;;;;;;;;18.80;99.90;;;;;;5085959;28;19919;-65
2022/07/07 13:43:35;;;;;;;;;;;18.60;99.90;;;;;;5089818;28;20327;-66
2022/07/07 13:46:01;;;;;;;;;;;18.80;99.90;;;;;;5092008;28;20006;-66
2022/07/07 13:48:26;;;;;;;;;;;19.10;99.90;;;;;;5094431;28;19957;-66
2022/07/07 13:50:52;;;;;;;;;;;19.40;99.90;;;;;;5095409;28;19915;-66
2022/07/07 13:53:18;;;;;;;;;;;19.60;99.90;;;;;;5095041;28;19981;-66
2022/07/07 13:55:43;;;;;;;;;;;19.90;99.90;;;;;;5095026;28;19919;-66
2022/07/07 13:58:09;;;;;;;;;;;20.20;99.90;;;;;;5095023;28;19951;-66
2022/07/07 14:00:34;;;;;;;;;;;20.50;99.90;;;;;;5095192;28;19908;-66
2022/07/07 14:03:00;;;;;;;;;;;20.40;99.90;;;;;;5091857;28;19920;-67
2022/07/07 14:05:26;;;;;;;;;;;20.30;99.90;;;;;;5100696;28;19915;-66
2022/07/07 14:07:51;;;;;;;;;;;20.30;99.90;;;;;;5106606;28;20459;-67
2022/07/07 14:10:17;;;;;;;;;;;20.20;99.90;;;;;;5106449;28;19951;-66
2022/07/07 14:12:42;;;;;;;;;;;20.00;99.90;;;;;;5102853;28;19922;-66
2022/07/07 14:15:08;;;;;;;;;;;19.80;99.90;;;;;;5092907;28;19912;-66
2022/07/07 14:17:34;;;;;;;;;;;19.70;99.90;;;;;;5099039;28;19916;-67
2022/07/07 14:20:00;;;;;;;;;;;19.70;99.90;;;;;;5077372;28;19912;-66